TOURFACTS.DK  
Stats and Facts from Tour de France.

Tour de France 2018 starts in 169 days
  Riders   Stages   Teams   Summits   Yearly  


 
Search by year

 2017 - St.21:
 14824 starters.
  5132 different riders.
  635 teams.
  2232 stages.
  454 restdays.
  439589.60 km.
  5653 abandonnees.


Top 3
GC
Christopher Froome86:20:55
Rigoberto Uran86:21:49
Romain Bardet86:23:15
Climb
Warren Barguil169 pt.
Primoz Roglic80 pt.
Thomas De Gendt64 pt.
Sprint
Michael Matthews359 pt.
André Greipel234 pt.
Edvald Boasson Hagen220 pt.
Youth
Simon Yates86:27:09
Louis Meintjes86:29:15
Emanuel Buchmann86:54:16
Facts from Tour de France 1908
  |   Stages.  |   Stage winners.  |   Days in yellow  |   Average speed.  |   Route.  |   Teams.  |   All riders.  |   Rookies.  |   Withdrawls.  |  

  |   GC.  |   Polka  |   Green  |   White  |   Summits. (In tour)  |   Summits. (Points)  |   Miscellaneous.  |  

Stage 1 on 13 - 07 - 1908
         Owning:    Georges Passerieu    
Pick a stage:  1 2 3 4 5 6 7 8 9 10 11 12 13 14
  ParisRoubaix | Dist: 272.00 km.

Average speed for all riders in stage:  25,964 km./hr.
    Place:Name:Team:Time:Km/h:
ENGGeorges PasserieuIndividual08:27:00  +  00:00:00=32,189 
FRALucien Petit-BretonIndividual08:32:00  +  00:05:00=31,875 
FRAErnest PaulIndividual08:32:00  +  00:05:00=31,875 
4 ITALuigi GannaIndividual08:32:00  +  00:05:00=31,875 
5 FRAFrançois FaberIndividual08:36:00  +  00:09:00=31,628 
6 FRAEugene ForestierIndividual08:36:00  +  00:09:00=31,628 
7 FRAHenri LignonIndividual08:37:00  +  00:10:00=31,567 
8 BELEugène PlatteauIndividual08:38:00  +  00:11:00=31,506 
9 FRAGeorges LorgeouIndividual08:38:00  +  00:11:00=31,506 
10 ITAJean NovoIndividual08:40:00  +  00:13:00=31,385 
11 FRAAndré PottierIndividual08:40:00  +  00:13:00=31,385 
12 FRAAlphonse CharpiotIndividual08:40:00  +  00:13:00=31,385 
13 ITAGiovanni GerbiIndividual08:43:00  +  00:16:00=31,205 
14 FRAHenri CornetIndividual08:46:00  +  00:19:00=31,027 
15 FRALéon GeorgetIndividual08:46:00  +  00:19:00=31,027 
16 FRAGustave GarrigouIndividual08:48:00  +  00:21:00=30,909 
17 FRACharles CruchonIndividual08:51:00  +  00:24:00=30,734 
18 FRAAugustin RingevalIndividual08:56:19  +  00:29:19=30,430 
19 BELCyrille Van HauwaertIndividual08:56:25  +  00:29:25=30,424 
20 ITACarlo GalettiIndividual09:02:00  +  00:35:00=30,111 
21 BELJules MesselisIndividual09:02:00  +  00:35:00=30,111 
22 ITAAldo BettiniIndividual09:02:00  +  00:35:00=30,111 
23 FRAGeorges FleuryIndividual09:02:05  +  00:35:05=30,106 
24 FRAAntoine LombretIndividual09:02:06  +  00:35:06=30,105 
25 ITAGiovanni RossignoliIndividual09:02:07  +  00:35:07=30,104 
26 FRAJules DeloffreIndividual09:02:08  +  00:35:08=30,103 
27 SUIMarcel LequatreIndividual09:02:10  +  00:35:10=30,101 
28 FRAMarcel RobertIndividual09:06:00  +  00:39:00=29,890 
29 FRARaymond LacotIndividual09:06:00  +  00:39:00=29,890 
30 BELAlbert DupontIndividual09:06:10  +  00:39:10=29,881 
31 FRAAlois CatteauIndividual09:11:00  +  00:44:00=29,619 
32 ITAClemente CanepariIndividual09:11:30  +  00:44:30=29,592 
33 FRAMaurice BroccoIndividual09:14:00  +  00:47:00=29,458 
34 FRAEmile GeorgetIndividual09:18:00  +  00:51:00=29,247 
35 ITALuigi ChiodiIndividual09:18:00  +  00:51:00=29,247 
36 FRAJulien MaîtronIndividual09:20:00  +  00:53:00=29,143 
37 FRARobert LecointeIndividual09:20:30  +  00:53:30=29,117 
38 FRAPaul DubocIndividual09:22:00  +  00:55:00=29,039 
39 FRAGeorges PaulmierIndividual09:25:00  +  00:58:00=28,885 
40 FRAMarceau NarcyIndividual09:25:00  +  00:58:00=28,885 
41 ITAEberardo PavesiIndividual09:25:00  +  00:58:00=28,885 
42 FRAMarcel GodivierIndividual09:25:00  +  00:58:00=28,885 
43 FRAHubert BaertIndividual09:25:00  +  00:58:00=28,885 
44 FRAMaurice PardonIndividual09:26:01  +  00:59:01=28,833 
45 FRAChristophe LaurentIndividual09:33:00  +  01:06:00=28,482 
46 ITAGiovanni CunioloIndividual09:33:00  +  01:06:00=28,482 
47 FRALouis TrousselierIndividual09:36:00  +  01:09:00=28,333 
48 FRAPhilippe PautratIndividual09:37:00  +  01:10:00=28,284 
49 FRAFrançois LafourcadeIndividual09:37:00  +  01:10:00=28,284 
50 FRAMartin SoulieIndividual09:37:00  +  01:10:00=28,284 
51 FRAAlfred QuenonIndividual09:38:00  +  01:11:00=28,235 
52 FRALéon WinandIndividual09:39:00  +  01:12:00=28,187 
53 FRANoel CombellesIndividual09:40:00  +  01:13:00=28,138 
54 FRAConstant MenagerIndividual09:49:00  +  01:22:00=27,708 
55 FRAJean-Baptiste DortignacqIndividual09:49:00  +  01:22:00=27,708 
56 FRAMarcel BerthetIndividual09:52:00  +  01:25:00=27,568 
57 FRAFerdinand PayanIndividual09:55:00  +  01:28:00=27,429 
58 FRAAlcide VivierIndividual09:56:00  +  01:29:00=27,383 
59 FRAAchille GermainIndividual10:00:00  +  01:33:00=27,200 
60 FRAAlexandre BodinierIndividual10:00:00  +  01:33:00=27,200 
61 FRARene FleuryIndividual10:01:00  +  01:34:00=27,155 
62 FRAAntony WattelierIndividual10:09:00  +  01:42:00=26,798 
63 FRAEdouard WattelierIndividual10:09:00  +  01:42:00=26,798 
64 FRAGeorge BamondeIndividual10:10:00  +  01:43:00=26,754 
65 ITALouis BertuanzaIndividual10:12:00  +  01:45:00=26,667 
66 ITAPasquale BonfantiIndividual10:15:00  +  01:48:00=26,537 
67 FRAJoseph ChanteperdrixIndividual10:17:00  +  01:50:00=26,451 
68 FRAGeorges BronchardIndividual10:34:00  +  02:07:00=25,741 
69 FRAJean PerreardIndividual10:34:00  +  02:07:00=25,741 
70 FRAPaul DunanIndividual10:35:00  +  02:08:00=25,701 
71 SUIPaul BoillatIndividual10:35:00  +  02:08:00=25,701 
72 FRAAlbert LaganierIndividual10:35:00  +  02:08:00=25,701 
73 FRAOmer BeaugendreIndividual10:36:00  +  02:09:00=25,660 
74 FRAPierre PrivatIndividual10:36:00  +  02:09:00=25,660 
75 FRAAndré CarreIndividual10:38:00  +  02:11:00=25,580 
76 ESPGonzalesIndividual10:39:00  +  02:12:00=25,540 
77 FRAPaul ChauvetIndividual10:45:00  +  02:18:00=25,302 
78 FRAAngelo BenIndividual10:48:00  +  02:21:00=25,185 
79 FRAFrancois AucouturierIndividual10:59:00  +  02:32:00=22,541 
80 FRAHubert SerriereIndividual11:04:00  +  02:37:00=24,578 
81 FRAFrançois VaraldaIndividual11:09:00  +  02:42:00=24,395 
82 FRAMarcel DozolIndividual11:12:00  +  02:45:00=24,286 
83 FRAEloi GuichardIndividual11:13:00  +  02:46:00=24,250 
84 FRAAlbert ChartierIndividual11:24:00  +  02:57:00=23,860 
85 FRALouis GardentIndividual11:40:00  +  03:13:00=23,314 
86 FRAJean DarcheIndividual11:47:00  +  03:20:00=23,083 
87 FRALeon RabotIndividual11:47:00  +  03:20:00=23,083 
88 FRALouis De MariaIndividual12:19:00  +  03:52:00=22,084 
89 FRAArmand RoumeIndividual12:24:00  +  03:57:00=21,935 
90 FRAJules ChabasIndividual12:27:00  +  04:00:00=21,847 
91 FRAArmand PerinIndividual12:48:00  +  04:21:00=21,250 
92 FRAErnest WoironIndividual12:52:00  +  04:25:00=21,140 
93 FRAMaurice PellerinIndividual12:53:00  +  04:26:00=21,113 
94 FRAMoise FugereIndividual13:00:01  +  04:33:01=20,923 
95 FRAErnest HailloteIndividual13:04:01  +  04:37:01=20,816 
96 FRALeon GiraultIndividual13:16:00  +  04:49:00=20,503 
97 BELFranz DülbergIndividual13:24:00  +  04:57:00=20,299 
98 FRAAlexandre GillesIndividual13:44:00  +  05:17:00=19,806 
99 FRAHenri AnthoineIndividual14:07:00  +  05:40:00=19,268 
100 FRAFernand HuillierIndividual14:22:00  +  05:55:00=18,933 
101 FRAPierre PoinetIndividual14:41:00  +  06:14:00=18,524 
102 FRAErnest GoujonIndividual16:18:00  +  07:51:00=16,687 
103 FRAAndre SevestreIndividual16:53:00  +  08:26:00=16,111 
104 FRAPierre DesvagesIndividual17:16:00  +  08:49:00=15,753 
105 FRAHippolyte AucouturierIndividual17:32:00  +  09:05:00=15,513 

Withdrawls: 5
 
Rider
Team
Reason
70  FRAGaston-René SalaisIndividualDid not finish
116  FRAFermin CourtIndividualDid not finish
120  FRAGaston DagorneauIndividualDid not finish
124  FRAEdmond MassonIndividualDid not finish
138  FRAHenri ServerinIndividualDid not finish

Todays birthdays.

1887  Marcel Godivier
1895  Louis Thuayre
1896  Léon Devos
1932  Aniceto Utset
1935  Willy Altig
1939  Sebastián Elorza
1941  René Binggeli
1948  Gerard Moneyron
1953  Patrocinio Jiménez
1954  Pierre Bazzo
1955  Serge Beucherie
1967  Antonio Politano
1969  Sergio Barbero
1977  Luca Paolini
1980  Gregory Rast
1981  Christophe Riblon
1985  Sebastian Langeveld
1990  Johan Esteban Chaves




Visits: